UZB705 UZTT-UHHH
Flight info
| Callsign | UZB705 |
|---|---|
| Flight time | N/A |
| Altitude | 33000 |
| Route | N0450F330 BAMUT Z580 KOLAM N143 KABIZ L135 BOKIS M99 BD W241 IKT A810 KUDAR P873 NIKTO G229 GU N992 TORMA A946 IVADA |
| Aircraft | A21N/M-VGDW/C |
Departure
| Time | 2026-04-29 06:23 |
|---|---|
| Airport | Tashkent International Airport (UZTT) |
Arrival
| Time | N/A |
|---|---|
| Airport | Khabarovsk Novy Airport (UHHH) |
| Time | Latitude | Longitude | Altitude | Speed | Heading |
|---|---|---|---|---|---|
| 2026-04-29 05:46 | 41.26267 | 69.26897 | 1387 ft | 0 kts | 263° |
| 2026-04-29 06:12 | 41.26268 | 69.26905 | 1383 ft | 4 kts | 263° |
| 2026-04-29 06:13 | 41.26271 | 69.26939 | 1383 ft | 3 kts | 263° |
| 2026-04-29 06:13 | 41.26280 | 69.26975 | 1383 ft | 4 kts | 223° |
| 2026-04-29 06:13 | 41.26292 | 69.26987 | 1382 ft | 2 kts | 205° |
| 2026-04-29 06:13 | 41.26311 | 69.27001 | 1382 ft | 4 kts | 231° |
| 2026-04-29 06:14 | 41.26319 | 69.27032 | 1382 ft | 4 kts | 265° |
| 2026-04-29 06:14 | 41.26320 | 69.27049 | 1382 ft | 0 kts | 261° |
| 2026-04-29 06:17 | 41.26319 | 69.27042 | 1382 ft | 1 kts | 261° |
| 2026-04-29 06:17 | 41.26317 | 69.27023 | 1382 ft | 3 kts | 253° |
| 2026-04-29 06:17 | 41.26302 | 69.26999 | 1383 ft | 4 kts | 210° |
| 2026-04-29 06:18 | 41.26270 | 69.27002 | 1383 ft | 5 kts | 153° |
| 2026-04-29 06:18 | 41.26237 | 69.27038 | 1386 ft | 7 kts | 139° |
| 2026-04-29 06:18 | 41.26197 | 69.27084 | 1385 ft | 8 kts | 138° |
| 2026-04-29 06:18 | 41.26146 | 69.27126 | 1385 ft | 10 kts | 188° |
| 2026-04-29 06:19 | 41.26105 | 69.27052 | 1386 ft | 11 kts | 247° |
| 2026-04-29 06:19 | 41.26072 | 69.26950 | 1383 ft | 13 kts | 246° |
| 2026-04-29 06:19 | 41.26035 | 69.26838 | 1383 ft | 14 kts | 246° |
| 2026-04-29 06:19 | 41.25994 | 69.26714 | 1383 ft | 15 kts | 246° |
| 2026-04-29 06:20 | 41.25949 | 69.26581 | 1387 ft | 16 kts | 246° |
| 2026-04-29 06:20 | 41.25925 | 69.26509 | 1383 ft | 6 kts | 242° |
| 2026-04-29 06:20 | 41.25892 | 69.26461 | 1386 ft | 8 kts | 220° |
| 2026-04-29 06:20 | 41.25845 | 69.26410 | 1385 ft | 9 kts | 219° |
| 2026-04-29 06:21 | 41.25790 | 69.26349 | 1387 ft | 11 kts | 220° |
| 2026-04-29 06:21 | 41.25740 | 69.26261 | 1387 ft | 13 kts | 246° |
| 2026-04-29 06:21 | 41.25699 | 69.26147 | 1385 ft | 14 kts | 244° |
| 2026-04-29 06:21 | 41.25634 | 69.26088 | 1386 ft | 16 kts | 120° |
| 2026-04-29 06:22 | 41.25644 | 69.26284 | 1385 ft | 47 kts | 82° |
| 2026-04-29 06:22 | 41.25731 | 69.27081 | 1384 ft | 126 kts | 80° |
| 2026-04-29 06:22 | 41.25888 | 69.28515 | 1388 ft | 184 kts | 83° |
| 2026-04-29 06:22 | 41.26083 | 69.30249 | 1896 ft | 194 kts | 83° |
| 2026-04-29 06:23 | 41.26268 | 69.32057 | 2759 ft | 196 kts | 84° |
| 2026-04-29 06:23 | 41.26449 | 69.33842 | 3502 ft | 200 kts | 83° |
| 2026-04-29 06:23 | 41.26648 | 69.35732 | 3989 ft | 213 kts | 83° |
| 2026-04-29 06:23 | 41.26486 | 69.37743 | 4267 ft | 232 kts | 117° |
| 2026-04-29 06:24 | 41.25380 | 69.39382 | 4519 ft | 252 kts | 152° |
| 2026-04-29 06:24 | 41.23637 | 69.39950 | 4837 ft | 268 kts | 185° |
| 2026-04-29 06:24 | 41.21885 | 69.39129 | 5404 ft | 273 kts | 217° |
| 2026-04-29 06:24 | 41.20641 | 69.37224 | 6122 ft | 276 kts | 237° |
| 2026-04-29 06:25 | 41.19602 | 69.35054 | 6800 ft | 279 kts | 236° |
| 2026-04-29 06:25 | 41.18486 | 69.32928 | 7475 ft | 282 kts | 233° |
| 2026-04-29 06:25 | 41.17290 | 69.30855 | 8168 ft | 285 kts | 232° |
| 2026-04-29 06:25 | 41.16062 | 69.28774 | 8882 ft | 287 kts | 236° |
| 2026-04-29 06:26 | 41.15209 | 69.26381 | 9566 ft | 289 kts | 255° |
| 2026-04-29 06:26 | 41.14860 | 69.23777 | 10197 ft | 294 kts | 263° |
| 2026-04-29 06:26 | 41.14634 | 69.21003 | 10495 ft | 311 kts | 267° |
| 2026-04-29 06:26 | 41.14732 | 69.18055 | 10745 ft | 329 kts | 280° |
| 2026-04-29 06:27 | 41.15416 | 69.15077 | 10977 ft | 347 kts | 295° |
| 2026-04-29 06:27 | 41.16769 | 69.12347 | 11196 ft | 364 kts | 312° |
| 2026-04-29 06:27 | 41.18764 | 69.10192 | 11486 ft | 377 kts | 330° |
| 2026-04-29 06:27 | 41.21215 | 69.08914 | 11990 ft | 383 kts | 347° |
| 2026-04-29 06:28 | 41.23862 | 69.08409 | 12567 ft | 386 kts | 353° |
| 2026-04-29 06:28 | 41.26548 | 69.08007 | 13159 ft | 389 kts | 353° |
| 2026-04-29 06:28 | 41.29248 | 69.07557 | 13715 ft | 393 kts | 352° |
| 2026-04-29 06:28 | 41.31986 | 69.07292 | 14191 ft | 396 kts | 1° |
| 2026-04-29 06:29 | 41.34712 | 69.07871 | 14663 ft | 399 kts | 17° |
| 2026-04-29 06:29 | 41.37277 | 69.09311 | 15134 ft | 402 kts | 26° |
| 2026-04-29 06:29 | 41.39785 | 69.10993 | 15605 ft | 405 kts | 26° |
| 2026-04-29 06:29 | 41.42276 | 69.12660 | 16065 ft | 407 kts | 26° |
| 2026-04-29 06:30 | 41.44852 | 69.14375 | 16524 ft | 410 kts | 26° |
| 2026-04-29 06:30 | 41.49986 | 69.17762 | 17405 ft | 414 kts | 26° |
| 2026-04-29 06:30 | 41.52546 | 69.19444 | 17848 ft | 417 kts | 26° |
| 2026-04-29 06:31 | 41.55156 | 69.21163 | 18279 ft | 420 kts | 26° |
| 2026-04-29 06:31 | 41.57787 | 69.22895 | 18638 ft | 423 kts | 26° |
| 2026-04-29 06:31 | 41.60439 | 69.24637 | 18995 ft | 426 kts | 26° |
| 2026-04-29 06:31 | 41.63110 | 69.26396 | 19372 ft | 429 kts | 26° |
| 2026-04-29 06:32 | 41.65791 | 69.28165 | 19728 ft | 432 kts | 26° |
| 2026-04-29 06:32 | 41.68495 | 69.29942 | 20093 ft | 434 kts | 26° |
| 2026-04-29 06:32 | 41.71176 | 69.31707 | 20463 ft | 437 kts | 26° |
| 2026-04-29 06:32 | 41.73963 | 69.33550 | 20847 ft | 440 kts | 26° |
| 2026-04-29 06:33 | 41.76720 | 69.35371 | 21214 ft | 443 kts | 26° |
| 2026-04-29 06:33 | 41.79491 | 69.37207 | 21587 ft | 446 kts | 26° |
| 2026-04-29 06:33 | 41.82277 | 69.39055 | 21988 ft | 448 kts | 26° |
| 2026-04-29 06:33 | 41.84992 | 69.41036 | 22350 ft | 452 kts | 33° |
| 2026-04-29 06:34 | 41.87469 | 69.43659 | 22697 ft | 456 kts | 43° |
| 2026-04-29 06:34 | 41.89755 | 69.46625 | 23102 ft | 458 kts | 44° |
| 2026-04-29 06:34 | 41.92025 | 69.49648 | 23471 ft | 461 kts | 44° |
| 2026-04-29 06:34 | 41.94316 | 69.52689 | 23782 ft | 464 kts | 44° |
| 2026-04-29 06:35 | 41.96618 | 69.55735 | 24147 ft | 465 kts | 44° |
| 2026-04-29 06:35 | 41.98932 | 69.58786 | 24484 ft | 467 kts | 44° |
| 2026-04-29 06:35 | 42.01258 | 69.61849 | 24804 ft | 469 kts | 43° |
| 2026-04-29 06:35 | 42.03591 | 69.64927 | 25149 ft | 470 kts | 44° |
| 2026-04-29 06:36 | 42.05930 | 69.68015 | 25464 ft | 472 kts | 43° |
| 2026-04-29 06:36 | 42.08276 | 69.71117 | 25762 ft | 474 kts | 43° |
| 2026-04-29 06:36 | 42.10630 | 69.74241 | 26057 ft | 476 kts | 44° |
| 2026-04-29 06:36 | 42.12990 | 69.77377 | 26334 ft | 477 kts | 43° |
| 2026-04-29 06:37 | 42.15364 | 69.80522 | 26615 ft | 479 kts | 43° |
| 2026-04-29 06:37 | 42.17745 | 69.83680 | 26880 ft | 481 kts | 43° |
| 2026-04-29 06:37 | 42.20100 | 69.86807 | 27114 ft | 482 kts | 43° |
| 2026-04-29 06:37 | 42.22491 | 69.89995 | 27358 ft | 484 kts | 43° |
| 2026-04-29 06:38 | 42.24889 | 69.93191 | 27618 ft | 485 kts | 43° |
| 2026-04-29 06:38 | 42.27286 | 69.96389 | 27919 ft | 484 kts | 43° |
| 2026-04-29 06:38 | 42.29676 | 69.99588 | 28225 ft | 483 kts | 43° |
| 2026-04-29 06:38 | 42.32056 | 70.02783 | 28534 ft | 482 kts | 43° |
| 2026-04-29 06:39 | 42.34440 | 70.05976 | 28842 ft | 482 kts | 43° |
| 2026-04-29 06:39 | 42.36815 | 70.09166 | 29158 ft | 481 kts | 43° |
| 2026-04-29 06:39 | 42.39191 | 70.12358 | 29442 ft | 480 kts | 43° |
| 2026-04-29 06:39 | 42.41561 | 70.15542 | 29739 ft | 480 kts | 43° |
| 2026-04-29 06:40 | 42.43930 | 70.18726 | 30027 ft | 479 kts | 43° |
| 2026-04-29 06:40 | 42.46291 | 70.21900 | 30296 ft | 478 kts | 43° |
| 2026-04-29 06:40 | 42.48651 | 70.25078 | 30531 ft | 478 kts | 43° |
| 2026-04-29 06:40 | 42.51001 | 70.28256 | 30781 ft | 477 kts | 43° |
| 2026-04-29 06:41 | 42.53346 | 70.31445 | 31016 ft | 476 kts | 43° |
| 2026-04-29 06:41 | 42.55658 | 70.34584 | 31254 ft | 476 kts | 43° |
| 2026-04-29 06:41 | 42.58004 | 70.37769 | 31483 ft | 475 kts | 43° |
| 2026-04-29 06:41 | 42.60335 | 70.40937 | 31702 ft | 475 kts | 43° |
| 2026-04-29 06:42 | 42.62712 | 70.44044 | 31920 ft | 474 kts | 41° |
| 2026-04-29 06:42 | 42.65138 | 70.47081 | 32136 ft | 473 kts | 41° |
| 2026-04-29 06:42 | 42.67561 | 70.50103 | 32330 ft | 473 kts | 41° |
| 2026-04-29 06:42 | 42.69961 | 70.53091 | 32523 ft | 472 kts | 41° |
| 2026-04-29 06:43 | 42.72385 | 70.56114 | 32712 ft | 472 kts | 41° |
| 2026-04-29 06:43 | 42.74803 | 70.59142 | 32907 ft | 472 kts | 41° |
| 2026-04-29 06:43 | 42.77207 | 70.62158 | 33111 ft | 470 kts | 41° |
| 2026-04-29 06:43 | 42.79611 | 70.65177 | 33293 ft | 470 kts | 41° |
| 2026-04-29 06:44 | 42.82011 | 70.68196 | 33455 ft | 469 kts | 41° |
| 2026-04-29 06:44 | 42.84418 | 70.71200 | 33615 ft | 469 kts | 41° |
| 2026-04-29 06:44 | 42.86822 | 70.74199 | 33763 ft | 468 kts | 41° |
| 2026-04-29 06:44 | 42.89217 | 70.77205 | 33905 ft | 468 kts | 41° |
| 2026-04-29 06:45 | 42.91614 | 70.80224 | 34045 ft | 468 kts | 41° |
| 2026-04-29 06:45 | 42.93998 | 70.83234 | 34151 ft | 468 kts | 41° |
| 2026-04-29 06:45 | 42.96387 | 70.86250 | 34244 ft | 468 kts | 41° |
| 2026-04-29 06:46 | 43.01133 | 70.92257 | 34442 ft | 468 kts | 41° |
| 2026-04-29 06:46 | 43.05902 | 70.98317 | 34610 ft | 468 kts | 41° |
| 2026-04-29 06:47 | 43.10678 | 71.04377 | 34751 ft | 468 kts | 41° |
| 2026-04-29 06:47 | 43.15440 | 71.10452 | 34871 ft | 469 kts | 41° |
| 2026-04-29 06:48 | 43.20212 | 71.16543 | 34993 ft | 469 kts | 41° |
| 2026-04-29 06:48 | 43.25000 | 71.22655 | 35053 ft | 471 kts | 41° |
| 2026-04-29 06:49 | 43.29787 | 71.28813 | 35046 ft | 473 kts | 41° |
| 2026-04-29 06:49 | 43.34581 | 71.35004 | 35041 ft | 473 kts | 41° |
| 2026-04-29 06:50 | 43.39354 | 71.41160 | 35040 ft | 473 kts | 41° |
| 2026-04-29 06:50 | 43.44158 | 71.47360 | 35041 ft | 474 kts | 41° |
| 2026-04-29 06:51 | 43.48960 | 71.53581 | 35052 ft | 473 kts | 41° |
| 2026-04-29 06:51 | 43.53759 | 71.59794 | 35046 ft | 473 kts | 41° |
| 2026-04-29 06:52 | 43.58527 | 71.65986 | 35042 ft | 474 kts | 41° |
| 2026-04-29 06:52 | 43.63308 | 71.72216 | 35041 ft | 472 kts | 41° |
| 2026-04-29 06:53 | 43.68081 | 71.78467 | 35043 ft | 473 kts | 41° |
| 2026-04-29 06:53 | 43.72862 | 71.84728 | 35046 ft | 474 kts | 41° |
| 2026-04-29 06:54 | 43.77655 | 71.91010 | 35043 ft | 475 kts | 41° |
| 2026-04-29 06:54 | 43.82432 | 71.97293 | 35047 ft | 473 kts | 41° |
| 2026-04-29 06:55 | 43.87215 | 72.03588 | 35050 ft | 474 kts | 41° |
| 2026-04-29 06:55 | 43.91988 | 72.09890 | 35058 ft | 474 kts | 42° |
| 2026-04-29 06:56 | 43.96735 | 72.16183 | 35053 ft | 475 kts | 42° |
| 2026-04-29 06:56 | 44.01496 | 72.22521 | 35055 ft | 474 kts | 42° |
| 2026-04-29 06:57 | 44.06269 | 72.28870 | 35055 ft | 474 kts | 42° |
| 2026-04-29 06:57 | 44.11033 | 72.35214 | 35061 ft | 475 kts | 42° |
| 2026-04-29 06:58 | 44.14987 | 72.40507 | 35059 ft | 474 kts | 42° |
| 2026-04-29 06:58 | 44.19755 | 72.46871 | 35061 ft | 475 kts | 42° |
| 2026-04-29 06:59 | 44.24520 | 72.53248 | 35063 ft | 474 kts | 42° |
| 2026-04-29 06:59 | 44.29275 | 72.59648 | 35068 ft | 474 kts | 42° |
| 2026-04-29 07:00 | 44.34025 | 72.66052 | 35067 ft | 475 kts | 42° |
| 2026-04-29 07:00 | 44.38775 | 72.72477 | 35069 ft | 475 kts | 43° |
| 2026-04-29 07:01 | 44.43516 | 72.78903 | 35071 ft | 474 kts | 43° |
| 2026-04-29 07:01 | 44.48223 | 72.85303 | 35075 ft | 475 kts | 43° |
| 2026-04-29 07:02 | 44.52972 | 72.91770 | 35076 ft | 476 kts | 42° |
| 2026-04-29 07:02 | 44.57714 | 72.98253 | 35080 ft | 476 kts | 42° |
| 2026-04-29 07:03 | 44.62455 | 73.04738 | 35086 ft | 475 kts | 43° |
| 2026-04-29 07:03 | 44.67196 | 73.11238 | 35092 ft | 476 kts | 42° |
| 2026-04-29 07:04 | 44.71922 | 73.17737 | 35106 ft | 475 kts | 42° |
| 2026-04-29 07:04 | 44.76642 | 73.24250 | 35102 ft | 474 kts | 43° |
| 2026-04-29 07:05 | 44.81358 | 73.30761 | 35113 ft | 474 kts | 42° |
| 2026-04-29 07:05 | 44.86032 | 73.37235 | 35121 ft | 474 kts | 43° |
| 2026-04-29 07:06 | 44.90719 | 73.43778 | 35129 ft | 473 kts | 43° |
| 2026-04-29 07:06 | 44.95406 | 73.50299 | 35131 ft | 473 kts | 43° |
| 2026-04-29 07:07 | 45.00088 | 73.56828 | 35138 ft | 472 kts | 43° |
| 2026-04-29 07:07 | 45.04752 | 73.63370 | 35136 ft | 472 kts | 43° |
| 2026-04-29 07:08 | 45.09395 | 73.69877 | 35149 ft | 472 kts | 43° |
| 2026-04-29 07:08 | 45.14054 | 73.76425 | 35139 ft | 472 kts | 43° |
| 2026-04-29 07:09 | 45.18715 | 73.82984 | 35142 ft | 472 kts | 43° |
| 2026-04-29 07:09 | 45.23373 | 73.89546 | 35144 ft | 472 kts | 43° |
| 2026-04-29 07:10 | 45.28004 | 73.96085 | 35148 ft | 471 kts | 43° |
| 2026-04-29 07:10 | 45.32666 | 74.02692 | 35148 ft | 471 kts | 43° |
| 2026-04-29 07:11 | 45.37270 | 74.09249 | 35156 ft | 471 kts | 43° |
| 2026-04-29 07:11 | 45.41904 | 74.15860 | 35156 ft | 471 kts | 43° |
| 2026-04-29 07:12 | 45.46536 | 74.22482 | 35155 ft | 471 kts | 43° |
| 2026-04-29 07:12 | 45.51167 | 74.29114 | 35160 ft | 471 kts | 43° |
| 2026-04-29 07:13 | 45.55754 | 74.35708 | 35157 ft | 471 kts | 43° |
| 2026-04-29 07:13 | 45.60370 | 74.42363 | 35162 ft | 471 kts | 43° |
| 2026-04-29 07:14 | 45.64943 | 74.49002 | 35163 ft | 471 kts | 43° |
| 2026-04-29 07:14 | 45.69552 | 74.55691 | 35173 ft | 470 kts | 43° |
| 2026-04-29 07:15 | 45.74123 | 74.62313 | 35173 ft | 470 kts | 43° |
| 2026-04-29 07:15 | 45.78735 | 74.68984 | 35172 ft | 470 kts | 43° |
| 2026-04-29 07:16 | 45.83322 | 74.75668 | 35174 ft | 470 kts | 43° |
| 2026-04-29 07:16 | 45.87872 | 74.82328 | 35177 ft | 469 kts | 43° |
| 2026-04-29 07:17 | 45.92428 | 74.89018 | 35180 ft | 468 kts | 43° |
| 2026-04-29 07:17 | 45.96983 | 74.95726 | 35178 ft | 469 kts | 43° |
| 2026-04-29 07:18 | 46.01540 | 75.02441 | 35184 ft | 468 kts | 43° |
| 2026-04-29 07:18 | 46.06091 | 75.09153 | 35179 ft | 468 kts | 43° |
| 2026-04-29 07:19 | 46.10628 | 75.15874 | 35188 ft | 468 kts | 43° |
| 2026-04-29 07:19 | 46.15169 | 75.22609 | 35181 ft | 468 kts | 43° |
| 2026-04-29 07:20 | 46.19698 | 75.29345 | 35180 ft | 468 kts | 43° |
| 2026-04-29 07:20 | 46.24218 | 75.36098 | 35185 ft | 468 kts | 43° |
| 2026-04-29 07:21 | 46.28740 | 75.42860 | 35188 ft | 468 kts | 44° |
| 2026-04-29 07:21 | 46.33257 | 75.49620 | 35185 ft | 466 kts | 43° |
| 2026-04-29 07:22 | 46.37765 | 75.56390 | 35182 ft | 467 kts | 44° |
| 2026-04-29 07:22 | 46.42263 | 75.63170 | 35189 ft | 467 kts | 44° |
| 2026-04-29 07:23 | 46.46761 | 75.69971 | 35188 ft | 467 kts | 44° |
| 2026-04-29 07:23 | 46.51259 | 75.76781 | 35206 ft | 466 kts | 44° |
| 2026-04-29 07:24 | 46.55702 | 75.83539 | 35202 ft | 465 kts | 44° |
| 2026-04-29 07:24 | 46.60168 | 75.90334 | 35199 ft | 464 kts | 44° |
| 2026-04-29 07:25 | 46.64624 | 75.97133 | 35202 ft | 463 kts | 44° |
| 2026-04-29 07:25 | 46.69076 | 76.03955 | 35202 ft | 464 kts | 44° |
| 2026-04-29 07:26 | 46.73521 | 76.10754 | 35208 ft | 462 kts | 44° |
| 2026-04-29 07:26 | 46.77930 | 76.17507 | 35206 ft | 463 kts | 44° |
| 2026-04-29 07:27 | 46.82350 | 76.24320 | 35209 ft | 461 kts | 44° |
| 2026-04-29 07:27 | 46.86757 | 76.31134 | 35211 ft | 461 kts | 44° |
| 2026-04-29 07:28 | 46.91165 | 76.37965 | 35216 ft | 462 kts | 44° |
| 2026-04-29 07:28 | 46.95566 | 76.44803 | 35219 ft | 461 kts | 44° |
| 2026-04-29 07:29 | 46.99957 | 76.51644 | 35218 ft | 461 kts | 44° |
| 2026-04-29 07:29 | 47.04339 | 76.58487 | 35226 ft | 460 kts | 44° |
| 2026-04-29 07:30 | 47.08711 | 76.65339 | 35224 ft | 460 kts | 44° |
| 2026-04-29 07:30 | 47.13051 | 76.72153 | 35247 ft | 460 kts | 44° |
| 2026-04-29 07:31 | 47.19601 | 76.82465 | 35235 ft | 459 kts | 44° |
| 2026-04-29 07:31 | 47.23933 | 76.89308 | 35244 ft | 459 kts | 44° |
| 2026-04-29 07:32 | 47.28275 | 76.96186 | 35244 ft | 458 kts | 44° |
| 2026-04-29 07:32 | 47.32596 | 77.03086 | 35252 ft | 458 kts | 45° |
| 2026-04-29 07:33 | 47.36906 | 77.10024 | 35250 ft | 459 kts | 45° |
| 2026-04-29 07:33 | 47.41238 | 77.16924 | 35252 ft | 457 kts | 44° |
| 2026-04-29 07:34 | 47.45590 | 77.23806 | 35260 ft | 458 kts | 44° |
| 2026-04-29 07:34 | 47.49904 | 77.30720 | 35261 ft | 458 kts | 45° |
| 2026-04-29 07:35 | 47.54185 | 77.37702 | 35289 ft | 457 kts | 45° |
| 2026-04-29 07:35 | 47.58485 | 77.44660 | 35280 ft | 457 kts | 45° |
| 2026-04-29 07:36 | 47.62754 | 77.51571 | 35286 ft | 458 kts | 45° |
| 2026-04-29 07:36 | 47.67061 | 77.58532 | 35290 ft | 458 kts | 44° |
| 2026-04-29 07:37 | 47.71357 | 77.65491 | 35293 ft | 458 kts | 45° |
| 2026-04-29 07:37 | 47.75651 | 77.72472 | 35312 ft | 457 kts | 45° |
| 2026-04-29 07:38 | 47.79936 | 77.79494 | 35317 ft | 458 kts | 46° |
| 2026-04-29 07:38 | 47.84216 | 77.86518 | 35316 ft | 458 kts | 46° |
| 2026-04-29 07:39 | 47.88498 | 77.93545 | 35316 ft | 458 kts | 45° |
| 2026-04-29 07:39 | 47.92745 | 78.00535 | 35327 ft | 458 kts | 45° |
| 2026-04-29 07:40 | 47.97012 | 78.07588 | 35321 ft | 459 kts | 46° |
| 2026-04-29 07:40 | 48.01285 | 78.14665 | 35320 ft | 459 kts | 46° |
| 2026-04-29 07:41 | 48.05548 | 78.21761 | 35318 ft | 459 kts | 45° |
| 2026-04-29 07:41 | 48.09823 | 78.28844 | 35317 ft | 458 kts | 46° |
| 2026-04-29 07:42 | 48.14080 | 78.35967 | 35316 ft | 458 kts | 46° |
| 2026-04-29 07:42 | 48.17620 | 78.41877 | 35324 ft | 460 kts | 46° |
| 2026-04-29 07:43 | 48.22622 | 78.50247 | 35313 ft | 459 kts | 46° |
| 2026-04-29 07:43 | 48.26858 | 78.57358 | 35314 ft | 460 kts | 46° |
| 2026-04-29 07:44 | 48.31120 | 78.64545 | 35306 ft | 460 kts | 46° |
| 2026-04-29 07:44 | 48.35376 | 78.71760 | 35303 ft | 459 kts | 47° |
| 2026-04-29 07:45 | 48.39627 | 78.78982 | 35308 ft | 461 kts | 47° |
| 2026-04-29 07:45 | 48.43153 | 78.84970 | 35307 ft | 459 kts | 46° |
| 2026-04-29 07:46 | 48.48083 | 78.93369 | 35313 ft | 460 kts | 47° |
| 2026-04-29 07:46 | 48.51628 | 78.99438 | 35311 ft | 461 kts | 46° |
| 2026-04-29 07:47 | 48.55830 | 79.06647 | 35325 ft | 460 kts | 47° |
| 2026-04-29 07:47 | 48.60056 | 79.13909 | 35339 ft | 459 kts | 47° |
| 2026-04-29 07:48 | 48.64256 | 79.21157 | 35352 ft | 459 kts | 47° |
| 2026-04-29 07:48 | 48.68461 | 79.28424 | 35349 ft | 458 kts | 47° |
| 2026-04-29 07:49 | 48.72656 | 79.35698 | 35358 ft | 459 kts | 47° |
| 2026-04-29 07:49 | 48.76850 | 79.42987 | 35363 ft | 459 kts | 47° |
| 2026-04-29 07:50 | 48.81034 | 79.50285 | 35378 ft | 456 kts | 48° |
| 2026-04-29 07:50 | 48.85200 | 79.57571 | 35381 ft | 458 kts | 47° |
| 2026-04-29 07:51 | 48.89368 | 79.64873 | 35380 ft | 456 kts | 47° |
| 2026-04-29 07:51 | 48.93489 | 79.72168 | 35382 ft | 457 kts | 47° |
| 2026-04-29 07:52 | 48.97632 | 79.79516 | 35372 ft | 456 kts | 47° |
| 2026-04-29 07:52 | 49.01772 | 79.86845 | 35386 ft | 454 kts | 47° |
| 2026-04-29 07:53 | 49.05903 | 79.94120 | 35376 ft | 455 kts | 47° |
| 2026-04-29 07:53 | 49.09995 | 80.01367 | 35380 ft | 454 kts | 48° |
| 2026-04-29 07:54 | 49.14103 | 80.08697 | 35373 ft | 455 kts | 47° |
| 2026-04-29 07:54 | 49.18221 | 80.16024 | 35375 ft | 454 kts | 47° |
| 2026-04-29 07:55 | 49.22321 | 80.23371 | 35376 ft | 453 kts | 47° |
| 2026-04-29 07:55 | 49.26406 | 80.30719 | 35366 ft | 453 kts | 48° |
| 2026-04-29 07:56 | 49.30496 | 80.38086 | 35373 ft | 453 kts | 47° |
| 2026-04-29 07:56 | 49.34572 | 80.45457 | 35373 ft | 452 kts | 48° |
| 2026-04-29 07:57 | 49.38646 | 80.52843 | 35373 ft | 453 kts | 48° |
| 2026-04-29 07:57 | 49.42685 | 80.60192 | 35377 ft | 454 kts | 48° |
| 2026-04-29 07:58 | 49.46740 | 80.67614 | 35375 ft | 452 kts | 49° |
| 2026-04-29 07:58 | 49.50794 | 80.75027 | 35376 ft | 452 kts | 48° |
| 2026-04-29 07:59 | 49.54846 | 80.82456 | 35377 ft | 453 kts | 49° |
| 2026-04-29 07:59 | 49.58897 | 80.89897 | 35376 ft | 453 kts | 49° |
| 2026-04-29 08:00 | 49.62935 | 80.97365 | 35386 ft | 454 kts | 48° |
| 2026-04-29 08:00 | 49.66973 | 81.04819 | 35381 ft | 452 kts | 49° |
| 2026-04-29 08:01 | 49.71006 | 81.12288 | 35377 ft | 452 kts | 49° |
| 2026-04-29 08:01 | 49.75010 | 81.19735 | 35374 ft | 454 kts | 49° |
| 2026-04-29 08:02 | 49.79029 | 81.27240 | 35372 ft | 454 kts | 49° |
| 2026-04-29 08:02 | 49.83045 | 81.34757 | 35369 ft | 454 kts | 49° |
| 2026-04-29 08:03 | 49.87045 | 81.42264 | 35371 ft | 451 kts | 49° |
| 2026-04-29 08:03 | 49.91041 | 81.49785 | 35369 ft | 452 kts | 49° |
| 2026-04-29 08:04 | 49.95044 | 81.57309 | 35367 ft | 452 kts | 49° |
| 2026-04-29 08:04 | 49.99034 | 81.64857 | 35364 ft | 452 kts | 49° |
| 2026-04-29 08:05 | 50.03023 | 81.72414 | 35364 ft | 452 kts | 49° |
| 2026-04-29 08:05 | 50.06992 | 81.79982 | 35377 ft | 449 kts | 49° |
| 2026-04-29 08:06 | 50.10943 | 81.87533 | 35368 ft | 449 kts | 49° |
| 2026-04-29 08:06 | 50.14885 | 81.95091 | 35369 ft | 450 kts | 49° |
| 2026-04-29 08:07 | 50.18830 | 82.02678 | 35358 ft | 450 kts | 49° |
| 2026-04-29 08:07 | 50.22768 | 82.10281 | 35351 ft | 450 kts | 49° |
| 2026-04-29 08:08 | 50.26707 | 82.17899 | 35356 ft | 449 kts | 49° |
| 2026-04-29 08:08 | 50.30631 | 82.25419 | 35351 ft | 449 kts | 49° |
| 2026-04-29 08:09 | 50.34570 | 82.33034 | 35354 ft | 449 kts | 49° |
| 2026-04-29 08:09 | 50.38481 | 82.40654 | 35361 ft | 449 kts | 50° |
| 2026-04-29 08:10 | 50.42377 | 82.48316 | 35363 ft | 450 kts | 50° |
| 2026-04-29 08:10 | 50.46278 | 82.55986 | 35368 ft | 449 kts | 50° |
| 2026-04-29 08:11 | 50.50161 | 82.63616 | 35375 ft | 446 kts | 49° |
| 2026-04-29 08:11 | 50.54025 | 82.71241 | 35370 ft | 446 kts | 49° |
| 2026-04-29 08:12 | 50.57886 | 82.78804 | 35368 ft | 446 kts | 49° |
| 2026-04-29 08:12 | 50.61759 | 82.86455 | 35367 ft | 446 kts | 50° |
| 2026-04-29 08:13 | 50.65611 | 82.94116 | 35361 ft | 446 kts | 50° |
| 2026-04-29 08:13 | 50.69466 | 83.01800 | 35370 ft | 445 kts | 49° |
| 2026-04-29 08:14 | 50.73294 | 83.09459 | 35360 ft | 445 kts | 50° |
| 2026-04-29 08:14 | 50.77118 | 83.17129 | 35362 ft | 444 kts | 49° |
| 2026-04-29 08:15 | 50.80942 | 83.24818 | 35360 ft | 444 kts | 50° |
| 2026-04-29 08:15 | 50.84732 | 83.32463 | 35365 ft | 445 kts | 50° |
| 2026-04-29 08:16 | 50.88545 | 83.40184 | 35368 ft | 444 kts | 50° |
| 2026-04-29 08:16 | 50.92332 | 83.47866 | 35372 ft | 441 kts | 49° |
| 2026-04-29 08:17 | 50.95773 | 83.55955 | 35367 ft | 447 kts | 62° |
| 2026-04-29 08:17 | 50.97601 | 83.65432 | 35383 ft | 451 kts | 75° |
| 2026-04-29 08:18 | 50.98997 | 83.75154 | 35385 ft | 452 kts | 74° |
| 2026-04-29 08:18 | 51.00424 | 83.84845 | 35396 ft | 451 kts | 74° |
| 2026-04-29 08:19 | 51.01860 | 83.94526 | 35384 ft | 450 kts | 73° |
| 2026-04-29 08:19 | 51.03276 | 84.04145 | 35400 ft | 451 kts | 73° |
| 2026-04-29 08:20 | 51.04695 | 84.13839 | 35415 ft | 449 kts | 74° |
| 2026-04-29 08:20 | 51.06104 | 84.23521 | 35408 ft | 449 kts | 74° |
| 2026-04-29 08:21 | 51.07503 | 84.33213 | 35452 ft | 449 kts | 73° |
| 2026-04-29 08:21 | 51.08894 | 84.42893 | 35432 ft | 449 kts | 73° |
| 2026-04-29 08:22 | 51.10270 | 84.52586 | 35434 ft | 448 kts | 73° |
| 2026-04-29 08:22 | 51.11642 | 84.62226 | 35437 ft | 449 kts | 73° |
| 2026-04-29 08:23 | 51.13010 | 84.71916 | 35447 ft | 449 kts | 74° |
| 2026-04-29 08:23 | 51.14370 | 84.81632 | 35442 ft | 449 kts | 74° |
| 2026-04-29 08:24 | 51.15714 | 84.91346 | 35449 ft | 449 kts | 74° |
| 2026-04-29 08:24 | 51.17059 | 85.01068 | 35451 ft | 449 kts | 74° |
| 2026-04-29 08:25 | 51.18399 | 85.10820 | 35440 ft | 451 kts | 74° |
| 2026-04-29 08:25 | 51.19726 | 85.20568 | 35440 ft | 450 kts | 74° |
| 2026-04-29 08:26 | 51.21037 | 85.30235 | 35455 ft | 448 kts | 74° |
| 2026-04-29 08:26 | 51.22341 | 85.39971 | 35444 ft | 448 kts | 74° |
| 2026-04-29 08:27 | 51.23634 | 85.49708 | 35446 ft | 449 kts | 74° |
| 2026-04-29 08:27 | 51.24926 | 85.59444 | 35445 ft | 448 kts | 74° |
| 2026-04-29 08:28 | 51.26201 | 85.69200 | 35458 ft | 449 kts | 74° |
| 2026-04-29 08:28 | 51.27463 | 85.78923 | 35457 ft | 446 kts | 74° |
| 2026-04-29 08:29 | 51.28705 | 85.88568 | 35452 ft | 447 kts | 74° |
| 2026-04-29 08:29 | 51.29973 | 85.98302 | 35451 ft | 446 kts | 74° |
| 2026-04-29 08:30 | 51.31841 | 86.12900 | 35448 ft | 447 kts | 74° |
| 2026-04-29 08:31 | 51.33069 | 86.22636 | 35457 ft | 444 kts | 74° |
| 2026-04-29 08:31 | 51.34280 | 86.32315 | 35442 ft | 444 kts | 74° |
| 2026-04-29 08:32 | 51.35486 | 86.41998 | 35435 ft | 444 kts | 74° |
| 2026-04-29 08:32 | 51.36676 | 86.51648 | 35439 ft | 444 kts | 74° |
| 2026-04-29 08:33 | 51.37850 | 86.61352 | 35441 ft | 445 kts | 74° |
| 2026-04-29 08:33 | 51.39040 | 86.71063 | 35460 ft | 441 kts | 73° |
| 2026-04-29 08:34 | 51.40214 | 86.80728 | 35452 ft | 442 kts | 74° |
| 2026-04-29 08:34 | 51.41182 | 86.88776 | 35448 ft | 442 kts | 74° |
| 2026-04-29 08:35 | 51.42326 | 86.98466 | 35453 ft | 444 kts | 74° |
| 2026-04-29 08:35 | 51.43466 | 87.08181 | 35457 ft | 443 kts | 74° |
| 2026-04-29 08:36 | 51.44595 | 87.17865 | 35464 ft | 440 kts | 74° |
| 2026-04-29 08:36 | 51.45724 | 87.27522 | 35453 ft | 441 kts | 74° |
| 2026-04-29 08:37 | 51.46831 | 87.37145 | 35445 ft | 441 kts | 74° |
| 2026-04-29 08:37 | 51.47943 | 87.46831 | 35444 ft | 441 kts | 74° |
| 2026-04-29 08:38 | 51.49054 | 87.56541 | 35438 ft | 442 kts | 74° |
| 2026-04-29 08:38 | 51.50147 | 87.66240 | 35456 ft | 438 kts | 74° |
| 2026-04-29 08:39 | 51.51230 | 87.75871 | 35448 ft | 438 kts | 74° |
| 2026-04-29 08:39 | 51.52295 | 87.85436 | 35444 ft | 439 kts | 74° |
| 2026-04-29 08:40 | 51.53359 | 87.95091 | 35448 ft | 440 kts | 74° |
| 2026-04-29 08:40 | 51.54423 | 88.04747 | 35447 ft | 440 kts | 74° |
| 2026-04-29 08:41 | 51.55483 | 88.14388 | 35461 ft | 435 kts | 74° |
| 2026-04-29 08:41 | 51.56517 | 88.23983 | 35453 ft | 436 kts | 74° |
| 2026-04-29 08:42 | 51.57605 | 88.33576 | 35450 ft | 435 kts | 72° |
| 2026-04-29 08:42 | 51.58815 | 88.43045 | 35445 ft | 436 kts | 72° |
| 2026-04-29 08:43 | 51.60034 | 88.52633 | 35456 ft | 434 kts | 72° |
| 2026-04-29 08:43 | 51.61227 | 88.62079 | 35468 ft | 432 kts | 72° |
| 2026-04-29 08:44 | 51.62419 | 88.71576 | 35476 ft | 433 kts | 72° |
| 2026-04-29 08:44 | 51.63597 | 88.81069 | 35468 ft | 433 kts | 72° |
| 2026-04-29 08:45 | 51.64771 | 88.90590 | 35474 ft | 433 kts | 72° |
| 2026-04-29 08:45 | 51.65941 | 89.00103 | 35481 ft | 432 kts | 73° |
| 2026-04-29 08:46 | 51.67101 | 89.09627 | 35480 ft | 432 kts | 73° |
| 2026-04-29 08:46 | 51.68261 | 89.19134 | 35475 ft | 432 kts | 73° |
| 2026-04-29 08:47 | 51.69398 | 89.28579 | 35473 ft | 432 kts | 73° |
| 2026-04-29 08:47 | 51.70516 | 89.38103 | 35472 ft | 433 kts | 73° |
| 2026-04-29 08:48 | 51.71638 | 89.47640 | 35485 ft | 432 kts | 73° |
| 2026-04-29 08:48 | 51.72765 | 89.57178 | 35482 ft | 434 kts | 73° |
| 2026-04-29 08:49 | 51.73873 | 89.66734 | 35486 ft | 433 kts | 73° |
| 2026-04-29 08:49 | 51.74973 | 89.76297 | 35487 ft | 434 kts | 73° |
| 2026-04-29 08:50 | 51.76062 | 89.85790 | 35479 ft | 433 kts | 73° |
| 2026-04-29 08:50 | 51.77148 | 89.95362 | 35478 ft | 433 kts | 74° |
| 2026-04-29 08:51 | 51.78223 | 90.04940 | 35473 ft | 431 kts | 74° |
| 2026-04-29 08:51 | 51.79293 | 90.14473 | 35457 ft | 432 kts | 74° |
| 2026-04-29 08:52 | 51.80346 | 90.23957 | 35452 ft | 431 kts | 74° |
| 2026-04-29 08:52 | 51.81401 | 90.33498 | 35466 ft | 430 kts | 74° |
| 2026-04-29 08:53 | 51.82448 | 90.43042 | 35459 ft | 430 kts | 74° |
| 2026-04-29 08:53 | 51.83482 | 90.52588 | 35478 ft | 430 kts | 74° |
| 2026-04-29 08:54 | 51.84512 | 90.62096 | 35462 ft | 429 kts | 74° |
| 2026-04-29 08:54 | 51.85531 | 90.71622 | 35454 ft | 429 kts | 74° |
| 2026-04-29 08:55 | 51.86537 | 90.81102 | 35446 ft | 430 kts | 75° |
| 2026-04-29 08:55 | 51.87546 | 90.90678 | 35451 ft | 430 kts | 75° |
| 2026-04-29 08:56 | 51.88546 | 91.00230 | 35471 ft | 431 kts | 75° |
| 2026-04-29 08:56 | 51.89531 | 91.09790 | 35457 ft | 430 kts | 75° |
| 2026-04-29 08:57 | 51.90515 | 91.19346 | 35469 ft | 430 kts | 75° |
| 2026-04-29 08:57 | 51.91490 | 91.28903 | 35467 ft | 430 kts | 75° |
| 2026-04-29 08:58 | 51.92457 | 91.38489 | 35466 ft | 430 kts | 75° |
| 2026-04-29 08:58 | 51.93406 | 91.48056 | 35484 ft | 430 kts | 75° |
| 2026-04-29 08:59 | 51.94348 | 91.57570 | 35459 ft | 430 kts | 76° |
| 2026-04-29 08:59 | 51.95297 | 91.67165 | 35448 ft | 430 kts | 76° |
| 2026-04-29 09:00 | 51.96241 | 91.76754 | 35448 ft | 430 kts | 76° |
| 2026-04-29 09:00 | 51.97173 | 91.86346 | 35449 ft | 431 kts | 76° |
| 2026-04-29 09:01 | 51.98090 | 91.95950 | 35461 ft | 430 kts | 76° |
| 2026-04-29 09:01 | 51.99001 | 92.05582 | 35454 ft | 433 kts | 76° |
| 2026-04-29 09:02 | 51.99913 | 92.15244 | 35433 ft | 435 kts | 76° |
| 2026-04-29 09:02 | 52.00807 | 92.24834 | 35440 ft | 432 kts | 76° |
| 2026-04-29 09:03 | 52.01698 | 92.34510 | 35441 ft | 432 kts | 76° |
| 2026-04-29 09:03 | 52.02577 | 92.44173 | 35431 ft | 434 kts | 76° |
| 2026-04-29 09:04 | 52.03463 | 92.53880 | 35432 ft | 435 kts | 77° |
| 2026-04-29 09:04 | 52.04339 | 92.63598 | 35433 ft | 434 kts | 77° |
| 2026-04-29 09:05 | 52.05200 | 92.73304 | 35429 ft | 434 kts | 77° |
| 2026-04-29 09:05 | 52.06053 | 92.82981 | 35433 ft | 435 kts | 77° |
| 2026-04-29 09:06 | 52.06899 | 92.92716 | 35440 ft | 434 kts | 77° |
| 2026-04-29 09:06 | 52.07742 | 93.02459 | 35443 ft | 436 kts | 77° |
| 2026-04-29 09:07 | 52.08579 | 93.12233 | 35430 ft | 436 kts | 77° |
| 2026-04-29 09:07 | 52.09407 | 93.22036 | 35431 ft | 436 kts | 77° |
| 2026-04-29 09:08 | 52.10225 | 93.31819 | 35429 ft | 436 kts | 77° |
| 2026-04-29 09:08 | 52.11028 | 93.41560 | 35426 ft | 437 kts | 78° |
| 2026-04-29 09:09 | 52.11822 | 93.51383 | 35443 ft | 439 kts | 78° |
| 2026-04-29 09:09 | 52.12612 | 93.61260 | 35421 ft | 439 kts | 78° |
| 2026-04-29 09:10 | 52.13397 | 93.71135 | 35426 ft | 441 kts | 78° |
| 2026-04-29 09:10 | 52.14184 | 93.81024 | 35426 ft | 440 kts | 78° |
| 2026-04-29 09:11 | 52.14978 | 93.90883 | 35427 ft | 440 kts | 79° |
| 2026-04-29 09:11 | 52.15636 | 94.00825 | 35433 ft | 443 kts | 80° |
| 2026-04-29 09:12 | 52.16275 | 94.10731 | 35421 ft | 442 kts | 79° |
| 2026-04-29 09:12 | 52.16903 | 94.20717 | 35415 ft | 442 kts | 80° |
| 2026-04-29 09:13 | 52.17513 | 94.30684 | 35415 ft | 443 kts | 80° |
| 2026-04-29 09:13 | 52.18127 | 94.40678 | 35419 ft | 442 kts | 80° |
| 2026-04-29 09:14 | 52.18733 | 94.50655 | 35423 ft | 443 kts | 80° |
| 2026-04-29 09:14 | 52.19327 | 94.60645 | 35434 ft | 442 kts | 80° |
| 2026-04-29 09:15 | 52.19913 | 94.70574 | 35441 ft | 439 kts | 80° |
| 2026-04-29 09:15 | 52.20490 | 94.80486 | 35438 ft | 440 kts | 80° |
| 2026-04-29 09:16 | 52.21064 | 94.90404 | 35435 ft | 439 kts | 80° |
| 2026-04-29 09:16 | 52.21628 | 95.00308 | 35435 ft | 444 kts | 81° |
| 2026-04-29 09:17 | 52.22184 | 95.10334 | 35438 ft | 443 kts | 81° |
| 2026-04-29 09:17 | 52.22730 | 95.20357 | 35440 ft | 444 kts | 81° |
| 2026-04-29 09:18 | 52.23269 | 95.30378 | 35433 ft | 444 kts | 81° |
| 2026-04-29 09:18 | 52.23798 | 95.40398 | 35436 ft | 443 kts | 81° |
| 2026-04-29 09:19 | 52.24320 | 95.50468 | 35440 ft | 447 kts | 82° |
| 2026-04-29 09:19 | 52.24843 | 95.60584 | 35420 ft | 448 kts | 81° |
| 2026-04-29 09:20 | 52.25377 | 95.70641 | 35422 ft | 447 kts | 82° |
| 2026-04-29 09:20 | 52.25887 | 95.80769 | 35409 ft | 447 kts | 82° |
| 2026-04-29 09:21 | 52.26377 | 95.90895 | 35406 ft | 448 kts | 82° |
| 2026-04-29 09:21 | 52.26871 | 96.01054 | 35400 ft | 450 kts | 82° |
| 2026-04-29 09:22 | 52.27343 | 96.11253 | 35397 ft | 451 kts | 83° |
| 2026-04-29 09:22 | 52.27810 | 96.21379 | 35379 ft | 450 kts | 83° |
| 2026-04-29 09:23 | 52.28274 | 96.31567 | 35378 ft | 450 kts | 83° |
| 2026-04-29 09:23 | 52.28721 | 96.41755 | 35367 ft | 450 kts | 83° |
| 2026-04-29 09:24 | 52.29168 | 96.51994 | 35371 ft | 454 kts | 83° |
| 2026-04-29 09:24 | 52.29601 | 96.62269 | 35361 ft | 454 kts | 83° |
| 2026-04-29 09:25 | 52.30034 | 96.72557 | 35358 ft | 454 kts | 83° |
| 2026-04-29 09:25 | 52.30383 | 96.81111 | 35357 ft | 454 kts | 84° |
| 2026-04-29 09:26 | 52.30789 | 96.91388 | 35358 ft | 453 kts | 83° |
| 2026-04-29 09:26 | 52.31201 | 97.01718 | 35362 ft | 458 kts | 84° |
| 2026-04-29 09:27 | 52.31602 | 97.12103 | 35359 ft | 456 kts | 84° |
| 2026-04-29 09:27 | 52.31987 | 97.22452 | 35359 ft | 456 kts | 84° |
| 2026-04-29 09:28 | 52.32341 | 97.32807 | 35366 ft | 456 kts | 84° |
| 2026-04-29 09:28 | 52.32696 | 97.43162 | 35369 ft | 456 kts | 84° |
| 2026-04-29 09:29 | 52.33066 | 97.53507 | 35378 ft | 461 kts | 84° |
| 2026-04-29 09:29 | 52.33587 | 97.69218 | 35388 ft | 461 kts | 84° |
| 2026-04-29 09:30 | 52.33924 | 97.79703 | 35411 ft | 461 kts | 84° |
| 2026-04-29 09:30 | 52.34254 | 97.90190 | 35415 ft | 461 kts | 85° |
| 2026-04-29 09:31 | 52.34576 | 98.00707 | 35426 ft | 465 kts | 85° |
| 2026-04-29 09:31 | 52.34899 | 98.11200 | 35430 ft | 465 kts | 85° |
| 2026-04-29 09:32 | 52.35211 | 98.21759 | 35428 ft | 465 kts | 85° |
| 2026-04-29 09:32 | 52.35512 | 98.32336 | 35437 ft | 465 kts | 85° |
| 2026-04-29 09:33 | 52.35799 | 98.42899 | 35445 ft | 465 kts | 85° |
| 2026-04-29 09:33 | 52.36075 | 98.53513 | 35444 ft | 469 kts | 86° |
| 2026-04-29 09:34 | 52.36353 | 98.64167 | 35459 ft | 469 kts | 86° |
| 2026-04-29 09:34 | 52.36603 | 98.74828 | 35454 ft | 469 kts | 86° |
| 2026-04-29 09:35 | 52.36845 | 98.85494 | 35461 ft | 469 kts | 86° |
| 2026-04-29 09:35 | 52.37103 | 98.96150 | 35448 ft | 470 kts | 86° |
| 2026-04-29 09:36 | 52.37409 | 99.06885 | 35444 ft | 472 kts | 86° |
| 2026-04-29 09:36 | 52.37762 | 99.17620 | 35422 ft | 472 kts | 86° |
| 2026-04-29 09:37 | 52.38111 | 99.28298 | 35421 ft | 472 kts | 86° |
| 2026-04-29 09:37 | 52.38451 | 99.39039 | 35403 ft | 472 kts | 86° |
| 2026-04-29 09:38 | 52.38791 | 99.49772 | 35402 ft | 471 kts | 85° |
| 2026-04-29 09:38 | 52.39110 | 99.60475 | 35379 ft | 470 kts | 85° |
| 2026-04-29 09:39 | 52.39409 | 99.71106 | 35377 ft | 470 kts | 86° |
| 2026-04-29 09:39 | 52.39708 | 99.81812 | 35376 ft | 471 kts | 86° |
| 2026-04-29 09:40 | 52.40000 | 99.92521 | 35375 ft | 471 kts | 86° |
| 2026-04-29 09:40 | 52.40280 | 100.03282 | 35369 ft | 475 kts | 86° |
| 2026-04-29 09:41 | 52.40554 | 100.14104 | 35364 ft | 475 kts | 86° |
| 2026-04-29 09:41 | 52.40820 | 100.24924 | 35363 ft | 475 kts | 86° |
| 2026-04-29 09:42 | 52.41076 | 100.35735 | 35368 ft | 475 kts | 87° |
| 2026-04-29 09:42 | 52.41310 | 100.46550 | 35378 ft | 475 kts | 87° |
| 2026-04-29 09:43 | 52.41553 | 100.57422 | 35379 ft | 480 kts | 87° |
| 2026-04-29 09:43 | 52.41777 | 100.68289 | 35378 ft | 480 kts | 87° |
| 2026-04-29 09:44 | 52.41998 | 100.79225 | 35379 ft | 480 kts | 87° |
| 2026-04-29 09:44 | 52.42207 | 100.90156 | 35381 ft | 480 kts | 87° |
| 2026-04-29 09:45 | 52.42396 | 101.01090 | 35386 ft | 482 kts | 88° |
| 2026-04-29 09:45 | 52.42594 | 101.12129 | 35384 ft | 485 kts | 88° |
| 2026-04-29 09:46 | 52.42770 | 101.23189 | 35381 ft | 485 kts | 88° |
| 2026-04-29 09:46 | 52.42931 | 101.34235 | 35377 ft | 485 kts | 88° |
| 2026-04-29 09:47 | 52.43084 | 101.45309 | 35379 ft | 485 kts | 88° |
| 2026-04-29 09:47 | 52.43227 | 101.56324 | 35380 ft | 489 kts | 89° |
| 2026-04-29 09:48 | 52.43367 | 101.67481 | 35380 ft | 489 kts | 88° |
| 2026-04-29 09:48 | 52.43496 | 101.78595 | 35371 ft | 488 kts | 88° |
| 2026-04-29 09:49 | 52.43625 | 101.89729 | 35365 ft | 488 kts | 89° |
| 2026-04-29 09:49 | 52.43723 | 102.00831 | 35364 ft | 487 kts | 89° |
| 2026-04-29 09:50 | 52.43825 | 102.12017 | 35349 ft | 493 kts | 89° |
| 2026-04-29 09:50 | 52.43897 | 102.23226 | 35343 ft | 491 kts | 89° |
| 2026-04-29 09:51 | 52.43977 | 102.34368 | 35338 ft | 491 kts | 89° |
| 2026-04-29 09:51 | 52.44043 | 102.45566 | 35334 ft | 491 kts | 89° |
| 2026-04-29 09:52 | 52.44102 | 102.56785 | 35334 ft | 495 kts | 90° |
| 2026-04-29 09:52 | 52.44143 | 102.68086 | 35332 ft | 495 kts | 90° |
| 2026-04-29 09:53 | 52.44172 | 102.79386 | 35328 ft | 496 kts | 90° |
| 2026-04-29 09:53 | 52.44200 | 102.90673 | 35322 ft | 496 kts | 90° |
| 2026-04-29 09:54 | 52.44212 | 103.01978 | 35318 ft | 496 kts | 90° |
| 2026-04-29 09:54 | 52.44205 | 103.13337 | 35310 ft | 499 kts | 90° |
| 2026-04-29 09:55 | 52.43484 | 103.24619 | 35303 ft | 497 kts | 104° |
| 2026-04-29 09:55 | 52.41870 | 103.35622 | 35302 ft | 497 kts | 105° |
| 2026-04-29 09:56 | 52.40266 | 103.46626 | 35294 ft | 497 kts | 105° |
| 2026-04-29 09:56 | 52.38666 | 103.57661 | 35292 ft | 499 kts | 106° |
| 2026-04-29 09:57 | 52.37052 | 103.68648 | 35286 ft | 499 kts | 106° |
| 2026-04-29 09:57 | 52.35414 | 103.79685 | 35287 ft | 499 kts | 106° |
| 2026-04-29 09:58 | 52.33762 | 103.90729 | 35281 ft | 500 kts | 106° |
| 2026-04-29 09:58 | 52.32091 | 104.01742 | 35266 ft | 500 kts | 107° |
| 2026-04-29 09:59 | 52.30408 | 104.12791 | 35286 ft | 501 kts | 107° |
| 2026-04-29 09:59 | 52.28706 | 104.23837 | 35289 ft | 501 kts | 107° |
| 2026-04-29 10:00 | 52.26999 | 104.34870 | 35290 ft | 501 kts | 107° |
| 2026-04-29 10:00 | 52.25858 | 104.46098 | 35289 ft | 506 kts | 91° |
| 2026-04-29 10:01 | 52.26132 | 104.57503 | 35289 ft | 506 kts | 88° |
| 2026-04-29 10:01 | 52.26536 | 104.68982 | 35278 ft | 506 kts | 88° |
| 2026-04-29 10:02 | 52.26858 | 104.80467 | 35272 ft | 506 kts | 89° |
| 2026-04-29 10:02 | 52.27136 | 104.91947 | 35264 ft | 506 kts | 89° |
| 2026-04-29 10:03 | 52.27400 | 105.03437 | 35258 ft | 508 kts | 89° |
| 2026-04-29 10:03 | 52.27689 | 105.14992 | 35285 ft | 508 kts | 89° |
| 2026-04-29 10:04 | 52.27956 | 105.26478 | 35251 ft | 505 kts | 89° |
| 2026-04-29 10:04 | 52.28214 | 105.37865 | 35248 ft | 505 kts | 89° |
| 2026-04-29 10:05 | 52.28452 | 105.49328 | 35242 ft | 505 kts | 89° |
| 2026-04-29 10:05 | 52.28676 | 105.60841 | 35239 ft | 508 kts | 89° |
| 2026-04-29 10:06 | 52.28892 | 105.72375 | 35236 ft | 509 kts | 90° |
| 2026-04-29 10:06 | 52.29093 | 105.83915 | 35234 ft | 508 kts | 90° |
| 2026-04-29 10:07 | 52.29284 | 105.95453 | 35236 ft | 508 kts | 90° |
| 2026-04-29 10:07 | 52.29460 | 106.07013 | 35232 ft | 511 kts | 90° |
| 2026-04-29 10:08 | 52.29637 | 106.18622 | 35244 ft | 511 kts | 90° |
| 2026-04-29 10:08 | 52.29801 | 106.30235 | 35249 ft | 511 kts | 90° |
| 2026-04-29 10:09 | 52.29944 | 106.41782 | 35249 ft | 511 kts | 90° |
| 2026-04-29 10:09 | 52.30773 | 106.53316 | 35245 ft | 512 kts | 76° |
| 2026-04-29 10:10 | 52.32616 | 106.64602 | 35270 ft | 514 kts | 74° |
| 2026-04-29 10:10 | 52.34478 | 106.75866 | 35251 ft | 512 kts | 75° |
| 2026-04-29 10:11 | 52.36296 | 106.87138 | 35246 ft | 512 kts | 75° |
| 2026-04-29 10:11 | 52.38096 | 106.98346 | 35241 ft | 513 kts | 75° |
| 2026-04-29 10:12 | 52.39901 | 107.09634 | 35241 ft | 512 kts | 75° |
| 2026-04-29 10:12 | 52.41690 | 107.20958 | 35221 ft | 514 kts | 75° |
| 2026-04-29 10:13 | 52.43456 | 107.32316 | 35226 ft | 514 kts | 75° |
| 2026-04-29 10:13 | 52.45216 | 107.43668 | 35217 ft | 514 kts | 75° |
| 2026-04-29 10:14 | 52.46999 | 107.55017 | 35219 ft | 514 kts | 75° |
| 2026-04-29 10:14 | 52.48485 | 107.64448 | 35203 ft | 514 kts | 75° |
| 2026-04-29 10:15 | 52.50208 | 107.75827 | 35194 ft | 513 kts | 76° |
| 2026-04-29 10:15 | 52.51914 | 107.87200 | 35202 ft | 513 kts | 75° |
| 2026-04-29 10:16 | 52.53642 | 107.98567 | 35199 ft | 513 kts | 76° |
| 2026-04-29 10:16 | 52.55351 | 108.09946 | 35202 ft | 513 kts | 76° |
| 2026-04-29 10:17 | 52.57035 | 108.21335 | 35203 ft | 513 kts | 76° |
| 2026-04-29 10:17 | 52.58733 | 108.32741 | 35192 ft | 515 kts | 76° |
| 2026-04-29 10:18 | 52.60427 | 108.44190 | 35199 ft | 514 kts | 76° |
| 2026-04-29 10:18 | 52.62079 | 108.55560 | 35194 ft | 514 kts | 76° |
| 2026-04-29 10:19 | 52.63726 | 108.67013 | 35195 ft | 514 kts | 76° |
| 2026-04-29 10:19 | 52.65366 | 108.78472 | 35182 ft | 514 kts | 76° |
| 2026-04-29 10:20 | 52.66993 | 108.89930 | 35167 ft | 513 kts | 76° |
| 2026-04-29 10:20 | 52.68603 | 109.01358 | 35171 ft | 511 kts | 77° |
| 2026-04-29 10:21 | 52.70191 | 109.12773 | 35190 ft | 512 kts | 77° |
| 2026-04-29 10:21 | 52.71787 | 109.24227 | 35163 ft | 512 kts | 76° |
| 2026-04-29 10:22 | 52.73377 | 109.35707 | 35165 ft | 513 kts | 77° |
| 2026-04-29 10:22 | 52.74945 | 109.47184 | 35137 ft | 513 kts | 77° |
| 2026-04-29 10:23 | 52.76500 | 109.58652 | 35151 ft | 512 kts | 77° |
| 2026-04-29 10:23 | 52.78045 | 109.70130 | 35145 ft | 512 kts | 77° |
| 2026-04-29 10:24 | 52.79579 | 109.81629 | 35141 ft | 512 kts | 77° |
| 2026-04-29 10:24 | 52.81101 | 109.93118 | 35181 ft | 512 kts | 77° |
| 2026-04-29 10:25 | 52.82586 | 110.04562 | 35137 ft | 513 kts | 78° |
| 2026-04-29 10:25 | 52.84052 | 110.16113 | 35120 ft | 513 kts | 78° |
| 2026-04-29 10:26 | 52.85550 | 110.27672 | 35116 ft | 513 kts | 78° |
| 2026-04-29 10:26 | 52.87043 | 110.39220 | 35110 ft | 513 kts | 77° |
| 2026-04-29 10:27 | 52.89304 | 110.56545 | 35115 ft | 513 kts | 78° |
| 2026-04-29 10:28 | 52.90764 | 110.68119 | 35096 ft | 514 kts | 77° |
| 2026-04-29 10:28 | 52.92209 | 110.79682 | 35123 ft | 517 kts | 77° |
| 2026-04-29 10:29 | 52.93642 | 110.91358 | 35086 ft | 518 kts | 77° |
| 2026-04-29 10:29 | 52.95078 | 111.03053 | 35082 ft | 518 kts | 77° |
| 2026-04-29 10:30 | 52.96493 | 111.14762 | 35061 ft | 518 kts | 77° |
| 2026-04-29 10:30 | 52.97911 | 111.26494 | 35037 ft | 518 kts | 77° |
| 2026-04-29 10:31 | 52.99307 | 111.38164 | 35045 ft | 515 kts | 78° |
| 2026-04-29 10:31 | 53.00683 | 111.49839 | 35041 ft | 515 kts | 78° |
| 2026-04-29 10:32 | 53.02052 | 111.61518 | 35030 ft | 515 kts | 78° |
| 2026-04-29 10:32 | 53.03400 | 111.73215 | 35040 ft | 516 kts | 78° |
| 2026-04-29 10:33 | 53.04745 | 111.84945 | 35022 ft | 517 kts | 78° |
| 2026-04-29 10:33 | 53.06068 | 111.96573 | 35007 ft | 514 kts | 78° |
| 2026-04-29 10:34 | 53.07395 | 112.08255 | 35007 ft | 514 kts | 78° |
| 2026-04-29 10:34 | 53.08702 | 112.19951 | 34995 ft | 514 kts | 79° |
| 2026-04-29 10:35 | 53.09996 | 112.31658 | 34998 ft | 514 kts | 78° |
| 2026-04-29 10:35 | 53.11287 | 112.43376 | 34988 ft | 514 kts | 79° |
| 2026-04-29 10:36 | 53.12522 | 112.55081 | 34992 ft | 513 kts | 79° |
| 2026-04-29 10:36 | 53.13764 | 112.66705 | 34983 ft | 513 kts | 79° |
| 2026-04-29 10:37 | 53.15017 | 112.78418 | 34986 ft | 514 kts | 79° |
| 2026-04-29 10:37 | 53.16266 | 112.90149 | 34970 ft | 514 kts | 79° |
| 2026-04-29 10:38 | 53.17488 | 113.01875 | 34972 ft | 514 kts | 79° |
| 2026-04-29 10:38 | 53.18720 | 113.13601 | 34971 ft | 511 kts | 79° |
| 2026-04-29 10:39 | 53.19915 | 113.25226 | 34964 ft | 512 kts | 79° |
| 2026-04-29 10:39 | 53.21107 | 113.36934 | 34987 ft | 512 kts | 79° |
| 2026-04-29 10:40 | 53.22284 | 113.48674 | 34968 ft | 513 kts | 80° |
| 2026-04-29 10:40 | 53.23415 | 113.60434 | 34963 ft | 514 kts | 80° |
| 2026-04-29 10:41 | 53.24552 | 113.72203 | 34952 ft | 512 kts | 80° |
| 2026-04-29 10:41 | 53.25684 | 113.83917 | 34954 ft | 511 kts | 80° |
| 2026-04-29 10:42 | 53.26817 | 113.95642 | 34947 ft | 511 kts | 80° |
| 2026-04-29 10:42 | 53.27949 | 114.07366 | 34952 ft | 511 kts | 79° |
| 2026-04-29 10:43 | 53.29085 | 114.19092 | 34956 ft | 511 kts | 80° |
| 2026-04-29 10:43 | 53.30175 | 114.30801 | 34928 ft | 512 kts | 80° |
| 2026-04-29 10:44 | 53.31267 | 114.42545 | 34933 ft | 509 kts | 80° |
| 2026-04-29 10:44 | 53.32334 | 114.54250 | 34934 ft | 509 kts | 81° |
| 2026-04-29 10:45 | 53.33382 | 114.65971 | 34931 ft | 509 kts | 80° |
| 2026-04-29 10:45 | 53.34427 | 114.77687 | 34937 ft | 509 kts | 81° |
| 2026-04-29 10:46 | 53.35450 | 114.89347 | 34930 ft | 509 kts | 81° |
| 2026-04-29 10:46 | 53.36473 | 115.01053 | 34917 ft | 507 kts | 80° |
| 2026-04-29 10:47 | 53.37481 | 115.12766 | 34930 ft | 510 kts | 81° |
| 2026-04-29 10:47 | 53.38476 | 115.24552 | 34916 ft | 511 kts | 81° |